Time;durP1;ratioP1;P1;durP2;ratioP2;P2;SDS_P1;SDS_P2;PMS_P1;PMS_P2;Temp;Humidity;BMP_temperature;BMP_pressure;BME280_temperature;BME280_humidity;BME280_pressure;Samples;Min_cycle;Max_cycle;Signal;HPM_P1;HPM_P2
2021/01/04 00:06:04;;;;;;;0.73;0.73;;;3.50;99.90;;;;;;20379629;29;20512;-73
2021/01/04 00:16:17;;;;;;;0.90;0.73;;;3.90;99.90;;;;;;20380129;29;20295;-72
2021/01/04 00:26:24;;;;;;;2.17;1.57;;;4.00;99.90;;;;;;20375712;29;20236;-72
2021/01/04 00:36:31;;;;;;;0.40;0.40;;;4.10;99.90;;;;;;20378560;29;20201;-72
2021/01/04 00:46:39;;;;;;;0.47;0.47;;;3.80;99.90;;;;;;20375823;29;20977;-71
2021/01/04 00:56:56;;;;;;;0.60;0.60;;;3.90;99.90;;;;;;20369431;29;20209;-71
2021/01/04 01:07:05;;;;;;;0.40;0.37;;;3.90;99.90;;;;;;20346043;29;20247;-72
2021/01/04 01:17:40;;;;;;;0.50;0.50;;;4.00;99.90;;;;;;20389438;29;20199;-72
2021/01/04 01:28:07;;;;;;;1.07;0.90;;;4.00;99.90;;;;;;20371105;29;20240;-73
2021/01/04 01:38:23;;;;;;;1.97;1.80;;;3.90;99.90;;;;;;20374174;29;20209;-71
2021/01/04 01:48:54;;;;;;;0.37;0.30;;;3.70;99.90;;;;;;20375026;29;20223;-72
2021/01/04 01:59:36;;;;;;;5.43;1.63;;;3.60;99.90;;;;;;20377115;29;20206;-72
2021/01/04 02:09:47;;;;;;;0.97;0.50;;;3.30;99.90;;;;;;20390424;29;21036;-72
2021/01/04 02:20:08;;;;;;;1.90;0.70;;;3.70;99.90;;;;;;20388056;29;20203;-69
2021/01/04 02:30:13;;;;;;;4.33;1.83;;;3.50;99.90;;;;;;20387640;29;20233;-71
2021/01/04 02:40:16;;;;;;;0.80;0.80;;;3.60;99.90;;;;;;20387542;29;20206;-74
2021/01/04 02:50:43;;;;;;;1.80;0.70;;;3.50;99.90;;;;;;20386191;29;20265;-73
2021/01/04 03:00:52;;;;;;;0.20;0.10;;;3.30;99.90;;;;;;20357430;29;20268;-70
2021/01/04 03:10:56;;;;;;;0.60;0.60;;;3.20;99.90;;;;;;20350940;29;20316;-70
2021/01/04 03:21:00;;;;;;;0.30;0.30;;;3.30;99.90;;;;;;20383267;29;20245;-70
2021/01/04 03:31:07;;;;;;;1.00;0.70;;;3.30;99.90;;;;;;20398937;29;20247;-71
2021/01/04 03:41:10;;;;;;;0.20;0.10;;;3.60;99.90;;;;;;20382000;29;20201;-70
2021/01/04 03:51:13;;;;;;;0.20;0.20;;;3.80;99.90;;;;;;20380033;29;20225;-69
2021/01/04 04:01:17;;;;;;;0.20;0.10;;;4.00;99.90;;;;;;20355547;29;20663;-75
2021/01/04 04:11:22;;;;;;;0.43;0.43;;;4.10;99.90;;;;;;20310669;29;20584;-76
2021/01/04 04:21:24;;;;;;;0.33;0.33;;;3.90;99.90;;;;;;20307150;29;20233;-76
2021/01/04 04:31:28;;;;;;;0.20;0.10;;;3.80;99.90;;;;;;20315620;29;20306;-76
2021/01/04 04:41:35;;;;;;;1.27;0.70;;;3.90;99.90;;;;;;20304332;29;20341;-77
2021/01/04 04:52:00;;;;;;;1.60;0.73;;;4.00;99.90;;;;;;20299941;29;20417;-74
2021/01/04 05:02:10;;;;;;;0.80;0.33;;;3.90;99.90;;;;;;20332821;23;20614;-67
2021/01/04 05:12:26;;;;;;;0.20;0.10;;;3.80;99.90;;;;;;20365318;29;20241;-70
2021/01/04 05:23:19;;;;;;;0.40;0.40;;;3.80;99.90;;;;;;20376849;29;20637;-70
2021/01/04 05:33:51;;;;;;;0.20;0.20;;;3.90;99.90;;;;;;20375651;29;20395;-72
2021/01/04 05:44:06;;;;;;;0.23;0.23;;;4.00;99.90;;;;;;20403381;29;20296;-71
2021/01/04 05:54:11;;;;;;;0.20;0.20;;;3.70;99.90;;;;;;20388646;29;20685;-71
2021/01/04 06:04:25;;;;;;;0.30;0.30;;;3.90;99.90;;;;;;20400737;29;20230;-71
2021/01/04 06:14:38;;;;;;;0.20;0.10;;;3.80;99.90;;;;;;20404585;29;20205;-69
2021/01/04 06:24:42;;;;;;;0.30;0.20;;;3.80;99.90;;;;;;20384664;29;20210;-71
2021/01/04 06:34:51;;;;;;;0.53;0.53;;;3.70;99.90;;;;;;20384647;29;20410;-71
2021/01/04 06:45:06;;;;;;;0.60;0.60;;;3.70;99.90;;;;;;20384138;29;20242;-72
2021/01/04 06:55:56;;;;;;;0.63;0.63;;;3.60;99.90;;;;;;20382690;29;20211;-72
2021/01/04 07:06:35;;;;;;;1.07;0.83;;;3.50;99.90;;;;;;20309206;29;20268;-72
2021/01/04 07:16:55;;;;;;;0.63;0.60;;;3.60;99.90;;;;;;20382615;29;20209;-71
2021/01/04 07:27:27;;;;;;;0.80;0.53;;;3.50;99.90;;;;;;20396250;29;20370;-70
2021/01/04 07:37:51;;;;;;;0.53;0.53;;;3.50;99.90;;;;;;20391742;29;20205;-72
2021/01/04 07:48:43;;;;;;;0.53;0.53;;;3.80;99.90;;;;;;20375115;29;20227;-72
2021/01/04 07:59:29;;;;;;;0.73;0.73;;;4.00;99.90;;;;;;20374739;29;20227;-71
2021/01/04 08:10:07;;;;;;;1.90;0.67;;;4.50;99.90;;;;;;20377296;29;20251;-71
2021/01/04 08:20:12;;;;;;;0.43;0.43;;;4.40;99.90;;;;;;20296347;29;20208;-72
2021/01/04 08:30:18;;;;;;;0.77;0.77;;;4.50;99.90;;;;;;20297295;29;20229;-72
2021/01/04 08:40:27;;;;;;;4.13;0.87;;;4.20;99.90;;;;;;20297925;29;20210;-73
2021/01/04 08:50:34;;;;;;;0.63;0.57;;;4.10;99.90;;;;;;20358791;29;20282;-74
2021/01/04 09:00:37;;;;;;;0.27;0.20;;;4.70;99.90;;;;;;20387624;29;20583;-72
2021/01/04 09:10:43;;;;;;;0.67;0.67;;;5.70;99.90;;;;;;20374317;29;20263;-73
2021/01/04 09:20:54;;;;;;;0.20;0.10;;;6.30;99.90;;;;;;20355740;29;20194;-70
2021/01/04 09:30:56;;;;;;;0.83;0.83;;;6.20;99.90;;;;;;20371282;29;20255;-69
2021/01/04 09:41:05;;;;;;;0.70;0.70;;;6.30;99.90;;;;;;20351454;29;20325;-70
2021/01/04 09:51:10;;;;;;;0.37;0.37;;;6.20;99.90;;;;;;20292476;29;20242;-68
2021/01/04 10:01:16;;;;;;;0.40;0.40;;;6.30;99.90;;;;;;20292505;29;20529;-70
2021/01/04 10:11:21;;;;;;;0.30;0.27;;;6.70;99.90;;;;;;20290591;29;20249;-67
2021/01/04 10:21:29;;;;;;;1.40;1.23;;;6.70;99.90;;;;;;20354509;29;20197;-68
2021/01/04 10:31:33;;;;;;;3.07;0.40;;;7.20;99.90;;;;;;20357225;29;20225;-69
2021/01/04 10:41:37;;;;;;;0.90;0.80;;;8.00;99.90;;;;;;20349429;29;20280;-70
2021/01/04 10:51:41;;;;;;;2.30;0.90;;;7.80;99.90;;;;;;20304453;29;20288;-67
2021/01/04 11:01:47;;;;;;;2.30;0.87;;;9.00;99.90;;;;;;20302376;29;20240;-68
2021/01/04 11:12:03;;;;;;;0.40;0.40;;;9.10;99.90;;;;;;20316865;29;20226;-69
2021/01/04 11:22:11;;;;;;;0.30;0.13;;;9.70;99.90;;;;;;20365891;29;20753;-70
2021/01/04 11:32:15;;;;;;;0.87;0.50;;;10.20;99.90;;;;;;20373476;29;20229;-69
2021/01/04 11:42:19;;;;;;;0.60;0.33;;;10.40;99.90;;;;;;20379850;29;20207;-67
2021/01/04 11:52:21;;;;;;;0.27;0.27;;;10.80;99.90;;;;;;20373834;29;20229;-69
2021/01/04 12:02:24;;;;;;;1.37;1.07;;;10.70;99.90;;;;;;20376251;29;20237;-68
2021/01/04 12:12:28;;;;;;;0.60;0.50;;;11.00;99.90;;;;;;20374506;29;20228;-67
2021/01/04 12:22:32;;;;;;;0.50;0.50;;;10.90;99.90;;;;;;20377102;29;20212;-66
2021/01/04 12:32:35;;;;;;;0.50;0.50;;;11.00;99.90;;;;;;20372829;29;20223;-70
2021/01/04 12:42:40;;;;;;;0.83;0.60;;;11.80;99.90;;;;;;20374560;29;20202;-68
2021/01/04 12:52:43;;;;;;;1.70;0.40;;;12.40;99.90;;;;;;20372027;29;20286;-68
2021/01/04 13:02:47;;;;;;;1.20;0.33;;;13.40;99.90;;;;;;20375978;29;20597;-68
2021/01/04 13:12:49;;;;;;;0.50;0.30;;;13.10;99.90;;;;;;20372076;29;20237;-65
2021/01/04 13:22:53;;;;;;;0.90;0.77;;;13.40;99.90;;;;;;20364773;29;20190;-68
2021/01/04 13:32:55;;;;;;;0.70;0.50;;;13.80;99.90;;;;;;20381281;29;20602;-69
2021/01/04 13:42:59;;;;;;;0.30;0.30;;;14.20;99.90;;;;;;20371081;29;20261;-69
2021/01/04 13:53:02;;;;;;;1.17;0.60;;;14.60;99.90;;;;;;20371363;29;20248;-68
2021/01/04 14:03:08;;;;;;;0.40;0.40;;;14.40;99.90;;;;;;20386040;29;20221;-68
2021/01/04 14:13:11;;;;;;;0.27;0.27;;;15.30;99.90;;;;;;20380980;29;20236;-66
2021/01/04 14:23:14;;;;;;;0.43;0.30;;;14.10;99.90;;;;;;20335201;29;20228;-66
2021/01/04 14:33:16;;;;;;;0.87;0.20;;;14.80;99.90;;;;;;20387313;29;20574;-66
2021/01/04 14:43:20;;;;;;;0.30;0.27;;;14.70;99.90;;;;;;20381010;29;20190;-67
2021/01/04 14:53:23;;;;;;;0.47;0.30;;;14.70;99.90;;;;;;20379845;29;20315;-65
2021/01/04 15:03:28;;;;;;;0.20;0.10;;;13.40;99.90;;;;;;20378628;29;20698;-66
2021/01/04 15:13:30;;;;;;;0.90;0.47;;;13.20;99.90;;;;;;20380314;29;20217;-66
2021/01/04 15:23:34;;;;;;;0.20;0.10;;;13.70;99.90;;;;;;20397203;29;20430;-68
2021/01/04 15:33:36;;;;;;;0.57;0.50;;;14.60;99.90;;;;;;20380542;29;20599;-69
2021/01/04 15:43:43;;;;;;;0.50;0.27;;;14.10;99.90;;;;;;20380726;29;20209;-70
2021/01/04 15:53:46;;;;;;;0.40;0.27;;;13.10;99.90;;;;;;20379227;29;20232;-72
2021/01/04 16:03:49;;;;;;;0.20;0.20;;;11.90;99.90;;;;;;20378046;29;20540;-68
2021/01/04 16:13:52;;;;;;;0.30;0.23;;;10.60;99.90;;;;;;20372795;29;20718;-68
2021/01/04 16:23:55;;;;;;;0.37;0.37;;;9.80;99.90;;;;;;20298577;29;21030;-68
2021/01/04 16:33:58;;;;;;;0.53;0.20;;;9.50;99.90;;;;;;20295285;29;20466;-69
2021/01/04 16:44:01;;;;;;;1.07;0.97;;;9.00;99.90;;;;;;20297370;29;20851;-68
2021/01/04 16:54:05;;;;;;;1.60;1.10;;;8.60;99.90;;;;;;20343251;29;20225;-67
2021/01/04 17:04:10;;;;;;;0.20;0.10;;;8.10;99.90;;;;;;20370240;29;20237;-69
2021/01/04 17:14:15;;;;;;;0.40;0.40;;;7.70;99.90;;;;;;20368821;29;20225;-68
2021/01/04 17:24:19;;;;;;;0.80;0.60;;;7.40;99.90;;;;;;20369724;29;20212;-67
2021/01/04 17:34:24;;;;;;;2.10;0.73;;;7.20;99.90;;;;;;20378795;29;20236;-66
2021/01/04 17:44:29;;;;;;;1.00;0.83;;;6.80;99.90;;;;;;20387517;29;20321;-66
2021/01/04 17:54:31;;;;;;;0.57;0.57;;;6.30;99.90;;;;;;20384072;29;20233;-67
2021/01/04 18:04:35;;;;;;;0.43;0.43;;;6.10;99.90;;;;;;20386830;29;20237;-67
2021/01/04 18:14:40;;;;;;;0.33;0.33;;;5.80;99.90;;;;;;20387442;29;20221;-65
2021/01/04 18:24:43;;;;;;;4.03;1.27;;;5.60;99.90;;;;;;20387758;29;20904;-68
2021/01/04 18:34:46;;;;;;;0.97;0.97;;;5.30;99.90;;;;;;20380604;29;20316;-67
2021/01/04 18:44:49;;;;;;;4.73;1.30;;;5.80;99.90;;;;;;20385091;29;20212;-66
2021/01/04 18:54:52;;;;;;;0.57;0.57;;;5.90;99.90;;;;;;20383042;29;20221;-65
2021/01/04 19:04:56;;;;;;;1.23;0.70;;;5.70;99.90;;;;;;20386021;29;20237;-68
2021/01/04 19:14:59;;;;;;;1.50;1.40;;;5.40;99.90;;;;;;20395515;29;20218;-68
2021/01/04 19:25:03;;;;;;;1.30;0.97;;;5.50;99.90;;;;;;20379862;29;20526;-66
2021/01/04 19:35:07;;;;;;;1.23;1.00;;;5.20;99.90;;;;;;20377583;29;20357;-67
2021/01/04 19:45:12;;;;;;;0.93;0.90;;;5.10;99.90;;;;;;20379382;29;20404;-68
2021/01/04 19:55:15;;;;;;;3.67;3.40;;;4.10;99.90;;;;;;20376044;29;20609;-65
2021/01/04 20:15:35;;;;;;;3.90;1.87;;;4.00;99.90;;;;;;21863895;23;20243;-67
2021/01/04 20:25:40;;;;;;;0.50;0.50;;;3.90;99.90;;;;;;20403561;28;20213;-67
2021/01/04 20:35:44;;;;;;;1.40;1.30;;;3.80;99.90;;;;;;20375353;29;20200;-67
2021/01/04 20:45:46;;;;;;;1.50;1.40;;;4.00;99.90;;;;;;20374098;29;20259;-68
2021/01/04 20:55:50;;;;;;;0.97;0.90;;;3.40;99.90;;;;;;20375194;29;20217;-68
2021/01/04 21:05:53;;;;;;;0.80;0.73;;;3.10;99.90;;;;;;20374016;29;20196;-66
2021/01/04 21:15:57;;;;;;;0.63;0.63;;;3.50;99.90;;;;;;20451959;28;20511;-67
2021/01/04 21:25:59;;;;;;;1.23;1.13;;;3.60;99.90;;;;;;20515982;28;20220;-67
2021/01/04 21:36:03;;;;;;;0.80;0.80;;;3.10;99.90;;;;;;20450151;28;20241;-68
2021/01/04 21:46:07;;;;;;;0.63;0.63;;;3.60;99.90;;;;;;20370090;29;20536;-68
2021/01/04 21:56:14;;;;;;;1.13;0.97;;;3.00;99.90;;;;;;20371616;29;20250;-66
2021/01/04 22:06:20;;;;;;;1.23;1.17;;;2.70;99.90;;;;;;20369308;29;20257;-66
2021/01/04 22:16:24;;;;;;;1.40;1.30;;;2.90;99.90;;;;;;20390322;28;20776;-66
2021/01/04 22:26:28;;;;;;;2.60;1.37;;;3.00;99.90;;;;;;20387653;29;20253;-66
2021/01/04 22:36:35;;;;;;;2.93;1.20;;;2.80;99.90;;;;;;20385457;29;20202;-67
2021/01/04 22:46:39;;;;;;;0.63;0.63;;;2.50;99.90;;;;;;20382489;29;20222;-67
2021/01/04 22:56:47;;;;;;;0.93;0.57;;;2.40;99.90;;;;;;20401621;28;20201;-66
2021/01/04 23:06:53;;;;;;;5.67;2.00;;;2.50;99.90;;;;;;20383021;29;20824;-67
2021/01/04 23:16:56;;;;;;;0.60;0.60;;;2.50;99.90;;;;;;20384541;29;21046;-66
2021/01/04 23:27:01;;;;;;;0.40;0.40;;;2.30;99.90;;;;;;20434819;28;20229;-66
2021/01/04 23:37:08;;;;;;;1.03;0.93;;;2.80;99.90;;;;;;20380715;29;20200;-68
2021/01/04 23:47:11;;;;;;;0.27;0.27;;;3.10;99.90;;;;;;20382336;29;20510;-68
2021/01/04 23:57:14;;;;;;;0.50;0.40;;;3.20;99.90;;;;;;20434290;28;20189;-65
